Sunrise Beach, Washington
Current Conditions -  °F | °C
As of 9:53 PM on Saturday 22 Nov 2014 (Local Time) from KTIW Reporting Station
Few Clouds Few Clouds  
Wind Chill: 41°   Ceiling: Unl
Heat Index: 46°   Visibility: 10mi
Dew Point: 42°   Wind: 12mph
Humidity: 86%   Direction: 180°S
Pressure: 30.12"   Gusts: NA
Location:  47.2986°N, 122.616°W
Report Text: KTIW 230553Z AUTO 18010KT 10SM FEW050 08/06 A3012 RMK AO2 RAB02E19 SLP201 P0000 60000 T00780056 10100 20078 53025
Loading
Personal Weather Stations






























Interactive Weather Map New forecast layout! Learn more

10-Day Weather Forecast

Advertisements
Track Severe Weather on mobile